createdAt,value
2018-05-15T00:01:41.024Z,95245.80
2018-05-15T00:04:08.589Z,95251.09
2018-05-15T00:06:36.151Z,95249.72
2018-05-15T00:09:03.786Z,95239.72
2018-05-15T00:11:31.384Z,95225.80
2018-05-15T00:13:58.916Z,95244.94
2018-05-15T00:16:26.464Z,95242.70
2018-05-15T00:18:54.022Z,95225.69
2018-05-15T00:21:21.562Z,95240.81
2018-05-15T00:23:49.111Z,95235.34
2018-05-15T00:26:16.671Z,95236.91
2018-05-15T00:28:44.283Z,95234.47
2018-05-15T00:31:11.812Z,95234.91
2018-05-15T00:33:39.364Z,95228.72
2018-05-15T00:36:06.914Z,95215.42
2018-05-15T00:38:34.441Z,95211.16
2018-05-15T00:41:01.969Z,95204.13
2018-05-15T00:43:29.519Z,95205.42
2018-05-15T00:45:57.109Z,95204.95
2018-05-15T00:48:24.677Z,95211.08
2018-05-15T00:50:52.235Z,95212.06
2018-05-15T00:53:19.760Z,95212.61
2018-05-15T00:55:47.310Z,95207.69
2018-05-15T00:58:14.830Z,95209.89
2018-05-15T01:00:42.421Z,95218.02
2018-05-15T01:03:10.026Z,95219.52
2018-05-15T01:05:37.588Z,95224.70
2018-05-15T01:08:05.151Z,95222.44
2018-05-15T01:10:32.669Z,95210.62
2018-05-15T01:13:00.303Z,95209.60
2018-05-15T01:15:27.865Z,95211.97
2018-05-15T01:17:55.384Z,95209.48
2018-05-15T01:20:23.542Z,95194.20
2018-05-15T01:22:51.066Z,95200.67
2018-05-15T01:25:18.708Z,95201.32
2018-05-15T01:27:46.235Z,95198.34
2018-05-15T01:30:13.783Z,95205.86
2018-05-15T01:32:41.357Z,95197.20
2018-05-15T01:35:08.859Z,95195.48
2018-05-15T01:37:36.374Z,95191.56
2018-05-15T01:40:03.933Z,95178.49
2018-05-15T01:42:31.460Z,95180.70
2018-05-15T01:44:58.999Z,95186.34
2018-05-15T01:47:26.502Z,95193.50
2018-05-15T01:49:54.019Z,95179.30
2018-05-15T01:52:21.567Z,95176.08
2018-05-15T01:54:49.084Z,95175.68
2018-05-15T01:57:16.603Z,95197.83
2018-05-15T01:59:44.129Z,95194.44
2018-05-15T02:02:11.656Z,95191.53
2018-05-15T02:04:39.164Z,95193.02
2018-05-15T02:07:06.760Z,95201.00
2018-05-15T02:09:34.273Z,95201.18
2018-05-15T02:12:01.792Z,95191.59
2018-05-15T02:14:29.335Z,95193.00
2018-05-15T02:16:56.861Z,95199.03
2018-05-15T02:19:24.397Z,95181.53
2018-05-15T02:21:51.919Z,95196.40
2018-05-15T02:24:19.433Z,95189.02
2018-05-15T02:26:46.962Z,95188.17
2018-05-15T02:29:14.474Z,95184.64
2018-05-15T02:31:42.015Z,95197.84
2018-05-15T02:34:09.555Z,95192.22
2018-05-15T02:36:37.095Z,95180.98
2018-05-15T02:39:04.620Z,95177.28
2018-05-15T02:41:32.131Z,95192.48
2018-05-15T02:43:59.644Z,95181.69
2018-05-15T02:46:27.164Z,95183.08
2018-05-15T02:48:54.703Z,95189.83
2018-05-15T02:51:22.218Z,95198.49
2018-05-15T02:53:49.726Z,95192.72
2018-05-15T02:56:17.262Z,95188.53
2018-05-15T02:58:44.796Z,95195.95
2018-05-15T03:01:12.324Z,95186.91
2018-05-15T03:03:39.845Z,95194.84
2018-05-15T03:06:07.367Z,95211.31
2018-05-15T03:08:34.885Z,95210.13
2018-05-15T03:11:02.627Z,95210.38
2018-05-15T03:13:30.460Z,95192.45
2018-05-15T03:15:58.116Z,95201.52
2018-05-15T03:18:26.004Z,95211.75
2018-05-15T03:20:53.761Z,95196.00
2018-05-15T03:23:21.272Z,95187.73
2018-05-15T03:25:48.776Z,95201.75
2018-05-15T03:28:16.372Z,95210.30
2018-05-15T03:30:43.861Z,95208.66
2018-05-15T03:33:11.397Z,95195.95
2018-05-15T03:35:39.183Z,95205.56
2018-05-15T03:38:06.702Z,95204.78
2018-05-15T03:40:34.280Z,95199.39
2018-05-15T03:43:01.839Z,95204.27
2018-05-15T03:45:29.353Z,95208.21
2018-05-15T03:47:56.894Z,95203.72
2018-05-15T03:50:24.439Z,95195.03
2018-05-15T03:52:51.955Z,95207.20
2018-05-15T03:55:19.472Z,95211.59
2018-05-15T03:57:46.979Z,95215.95
2018-05-15T04:00:26.281Z,95226.47
2018-05-15T04:03:05.467Z,95226.36
2018-05-15T04:05:44.744Z,95221.24
2018-05-15T04:08:14.080Z,95230.63
2018-05-15T04:10:41.635Z,95226.61
2018-05-15T04:13:09.182Z,95214.48
2018-05-15T04:15:37.013Z,95225.95
2018-05-15T04:18:04.539Z,95217.97
2018-05-15T04:20:32.109Z,95223.53
2018-05-15T04:22:59.636Z,95223.09
2018-05-15T04:25:27.160Z,95233.58
2018-05-15T04:27:54.670Z,95226.53
2018-05-15T04:30:22.216Z,95240.35
2018-05-15T04:32:49.763Z,95243.55
2018-05-15T04:35:17.374Z,95245.94
2018-05-15T04:37:44.864Z,95249.70
2018-05-15T04:40:12.431Z,95251.24
2018-05-15T04:42:39.963Z,95263.45
2018-05-15T04:45:07.515Z,95253.33
2018-05-15T04:47:35.045Z,95260.50
2018-05-15T04:50:02.558Z,95255.33
2018-05-15T04:52:30.067Z,95263.45
2018-05-15T04:54:57.574Z,95263.44
2018-05-15T04:57:25.079Z,95257.77
2018-05-15T04:59:52.588Z,95258.71
2018-05-15T05:02:20.309Z,95261.27
2018-05-15T05:04:47.818Z,95266.52
2018-05-15T05:07:15.393Z,95260.46
2018-05-15T05:09:42.999Z,95265.69
2018-05-15T05:12:10.520Z,95267.80
2018-05-15T05:14:38.034Z,95261.80
2018-05-15T05:17:05.549Z,95267.45
2018-05-15T05:19:33.107Z,95269.98
2018-05-15T05:22:00.627Z,95267.36
2018-05-15T05:24:28.142Z,95267.25
2018-05-15T05:26:55.655Z,95263.34
2018-05-15T05:29:23.195Z,95241.62
2018-05-15T05:31:50.718Z,95247.70
2018-05-15T05:34:18.227Z,95255.38
2018-05-15T05:36:45.744Z,95245.70
2018-05-15T05:39:13.286Z,95245.54
2018-05-15T05:41:40.841Z,95247.23
2018-05-15T05:44:08.350Z,95255.73
2018-05-15T05:46:35.931Z,95247.45
2018-05-15T05:49:03.448Z,95248.55
2018-05-15T05:51:39.258Z,95254.25
2018-05-15T05:54:06.772Z,95259.02
2018-05-15T05:56:34.305Z,95259.30
2018-05-15T05:59:01.882Z,95255.14
2018-05-15T06:01:29.396Z,95250.47
2018-05-15T06:03:56.928Z,95253.64
2018-05-15T06:06:24.451Z,95258.48
2018-05-15T06:08:51.960Z,95254.27
2018-05-15T06:11:19.484Z,95259.06
2018-05-15T06:13:47.008Z,95236.61
2018-05-15T06:16:14.523Z,95258.34
2018-05-15T06:18:42.038Z,95257.36
2018-05-15T06:21:09.684Z,95252.89
2018-05-15T06:23:37.202Z,95250.59
2018-05-15T06:26:04.752Z,95251.44
2018-05-15T06:28:32.333Z,95253.59
2018-05-15T06:30:59.903Z,95235.30
2018-05-15T06:33:27.416Z,95242.06
2018-05-15T06:35:54.966Z,95246.11
2018-05-15T06:38:22.484Z,95249.34
2018-05-15T06:40:50.057Z,95252.45
2018-05-15T06:43:17.582Z,95255.69
2018-05-15T06:45:45.112Z,95252.03
2018-05-15T06:48:12.696Z,95252.34
2018-05-15T06:50:40.520Z,95247.23
2018-05-15T06:53:08.052Z,95250.39
2018-05-15T06:55:35.604Z,95249.17
2018-05-15T06:58:03.127Z,95248.03
2018-05-15T07:00:30.703Z,95249.70
2018-05-15T07:02:58.222Z,95255.63
2018-05-15T07:05:25.734Z,95256.48
2018-05-15T07:07:53.248Z,95245.91
2018-05-15T07:10:20.769Z,95234.37
2018-05-15T07:12:48.288Z,95244.45
2018-05-15T07:15:15.868Z,95231.09
2018-05-15T07:17:43.375Z,95243.38
2018-05-15T07:20:10.920Z,95227.63
2018-05-15T07:22:38.446Z,95226.70
2018-05-15T07:25:05.977Z,95231.17
2018-05-15T07:27:33.506Z,95237.53
2018-05-15T07:30:01.018Z,95234.43
2018-05-15T07:32:28.580Z,95243.16
2018-05-15T07:34:56.103Z,95231.41
2018-05-15T07:37:23.679Z,95235.22
2018-05-15T07:39:51.230Z,95231.52
2018-05-15T07:42:18.775Z,95231.70
2018-05-15T07:44:46.330Z,95215.44
2018-05-15T07:47:13.883Z,95232.63
2018-05-15T07:49:41.444Z,95230.70
2018-05-15T07:52:08.967Z,95227.42
2018-05-15T07:54:36.520Z,95223.22
2018-05-15T07:57:04.061Z,95234.26
2018-05-15T07:59:31.593Z,95218.89
2018-05-15T08:01:59.160Z,95230.95
2018-05-15T08:04:26.656Z,95228.78
2018-05-15T08:06:54.158Z,95227.47
2018-05-15T08:09:21.685Z,95229.64
2018-05-15T08:11:49.203Z,95225.95
2018-05-15T08:14:16.707Z,95216.02
2018-05-15T08:16:44.215Z,95221.13
2018-05-15T08:19:11.736Z,95223.02
2018-05-15T08:21:39.286Z,95224.52
2018-05-15T08:24:06.804Z,95222.70
2018-05-15T08:26:34.360Z,95225.59
2018-05-15T08:29:01.957Z,95235.36
2018-05-15T08:31:29.508Z,95226.88
2018-05-15T08:33:57.032Z,95226.22
2018-05-15T08:36:24.556Z,95217.17
2018-05-15T08:38:52.103Z,95223.20
2018-05-15T08:41:19.744Z,95219.59
2018-05-15T08:43:47.331Z,95224.48
2018-05-15T08:46:14.858Z,95223.95
2018-05-15T08:48:42.388Z,95233.95
2018-05-15T08:51:10.535Z,95229.36
2018-05-15T08:53:38.058Z,95219.08
2018-05-15T08:56:05.588Z,95221.28
2018-05-15T08:58:33.108Z,95231.46
2018-05-15T09:01:00.654Z,95221.64
2018-05-15T09:03:28.204Z,95221.98
2018-05-15T09:05:55.716Z,95225.16
2018-05-15T09:08:23.253Z,95225.96
2018-05-15T09:10:50.796Z,95233.60
2018-05-15T09:13:18.308Z,95223.07
2018-05-15T09:15:45.824Z,95222.66
2018-05-15T09:18:13.389Z,95234.58
2018-05-15T09:20:41.121Z,95231.77
2018-05-15T09:23:08.631Z,95236.70
2018-05-15T09:25:36.135Z,95225.98
2018-05-15T09:28:03.657Z,95248.42
2018-05-15T09:30:31.224Z,95236.59
2018-05-15T09:32:58.735Z,95251.42
2018-05-15T09:35:26.255Z,95238.95
2018-05-15T09:37:53.782Z,95243.61
2018-05-15T09:40:21.293Z,95221.11
2018-05-15T09:42:48.803Z,95226.03
2018-05-15T09:45:16.351Z,95229.69
2018-05-15T09:47:43.883Z,95228.23
2018-05-15T09:50:11.418Z,95231.32
2018-05-15T09:52:39.000Z,95237.41
2018-05-15T09:55:06.503Z,95223.32
2018-05-15T09:57:34.776Z,95216.50
2018-05-15T10:00:04.182Z,95224.56
2018-05-15T10:02:31.727Z,95228.68
2018-05-15T10:04:59.246Z,95220.98
2018-05-15T10:07:26.766Z,95220.06
2018-05-15T10:09:54.283Z,95209.09
2018-05-15T10:12:21.815Z,95213.75
2018-05-15T10:14:49.363Z,95216.43
2018-05-15T10:17:16.893Z,95190.96
2018-05-15T10:19:44.404Z,95201.44
2018-05-15T10:22:11.963Z,95204.52
2018-05-15T10:24:39.498Z,95208.86
2018-05-15T10:27:07.012Z,95185.03
2018-05-15T10:29:34.520Z,95191.77
2018-05-15T10:32:02.067Z,95197.41
2018-05-15T10:34:29.589Z,95188.23
2018-05-15T10:36:57.099Z,95175.11
2018-05-15T10:39:24.679Z,95181.47
2018-05-15T10:41:52.214Z,95164.84
2018-05-15T10:44:19.722Z,95166.77
2018-05-15T10:46:47.227Z,95155.69
2018-05-15T10:49:14.754Z,95159.89
2018-05-15T10:51:42.263Z,95153.72
2018-05-15T10:54:09.770Z,95163.94
2018-05-15T10:56:37.279Z,95154.77
2018-05-15T10:59:04.849Z,95179.54
2018-05-15T11:01:32.355Z,95170.95
2018-05-15T11:03:59.881Z,95169.13
2018-05-15T11:06:28.424Z,95177.83
2018-05-15T11:08:55.940Z,95165.55
2018-05-15T11:11:23.468Z,95164.10
2018-05-15T11:13:51.006Z,95176.92
2018-05-15T11:16:18.520Z,95177.72
2018-05-15T11:18:46.090Z,95151.66
2018-05-15T11:21:25.473Z,95173.42
2018-05-15T11:26:59.142Z,95168.44
2018-05-15T11:29:26.674Z,95171.44
2018-05-15T11:31:54.185Z,95175.30
2018-05-15T11:34:21.700Z,95167.34
2018-05-15T11:36:50.024Z,95170.78
2018-05-15T11:39:17.544Z,95175.36
2018-05-15T11:41:45.115Z,95165.14
2018-05-15T11:44:13.968Z,95162.90
2018-05-15T11:46:44.124Z,95151.33
2018-05-15T11:49:12.701Z,95151.00
2018-05-15T11:51:39.690Z,95137.55
2018-05-15T11:54:06.789Z,95152.23
2018-05-15T11:56:34.417Z,95148.00
2018-05-15T11:59:01.844Z,95140.91
2018-05-15T12:01:29.376Z,95139.17
2018-05-15T12:03:56.999Z,95142.57
2018-05-15T12:06:24.512Z,95130.89
2018-05-15T12:08:52.029Z,95129.03
2018-05-15T12:11:19.543Z,95124.41
2018-05-15T12:13:47.081Z,95117.81
2018-05-15T12:16:14.652Z,95124.27
2018-05-15T12:18:42.265Z,95110.42
2018-05-15T12:21:09.914Z,95121.15
2018-05-15T12:23:37.362Z,95125.80
2018-05-15T12:26:04.866Z,95120.38
2018-05-15T12:28:32.369Z,95131.25
2018-05-15T12:30:59.875Z,95104.42
2018-05-15T12:33:27.377Z,95105.30
2018-05-15T12:35:54.971Z,95107.23
2018-05-15T12:38:22.423Z,95100.28
2018-05-15T12:40:49.914Z,95091.67
2018-05-15T12:43:17.413Z,95092.66
2018-05-15T12:45:44.918Z,95086.64
2018-05-15T12:48:12.430Z,95077.06
2018-05-15T12:50:39.932Z,95067.54
2018-05-15T12:53:07.452Z,95068.03
2018-05-15T12:55:34.972Z,95068.67
2018-05-15T12:58:02.508Z,95055.33
2018-05-15T13:00:30.013Z,95046.84
2018-05-15T13:02:57.523Z,95097.23
2018-05-15T13:05:25.026Z,95055.98
2018-05-15T13:07:52.557Z,95074.06
2018-05-15T13:10:20.056Z,95067.52
2018-05-15T13:12:47.634Z,95064.86
2018-05-15T13:15:15.155Z,95073.80
2018-05-15T13:17:42.702Z,95074.34
2018-05-15T13:20:10.885Z,95066.12
2018-05-15T13:22:38.432Z,95066.30
2018-05-15T13:25:05.974Z,95070.20
2018-05-15T13:27:33.630Z,95057.20
2018-05-15T13:30:01.191Z,95050.08
2018-05-15T13:32:28.688Z,95059.17
2018-05-15T13:34:56.207Z,95056.87
2018-05-15T13:37:23.719Z,95052.77
2018-05-15T13:39:51.226Z,95045.03
2018-05-15T13:42:18.738Z,95039.92
2018-05-15T13:44:46.253Z,95042.97
2018-05-15T13:47:13.761Z,95052.50
2018-05-15T13:49:41.278Z,95057.41
2018-05-15T13:52:09.550Z,95054.69
2018-05-15T13:54:37.110Z,95059.67
2018-05-15T13:57:04.629Z,95062.84
2018-05-15T13:59:32.140Z,95054.82
2018-05-15T14:01:59.650Z,95073.48
2018-05-15T14:04:27.170Z,95082.63
2018-05-15T14:06:54.684Z,95080.36
2018-05-15T14:09:22.195Z,95071.40
2018-05-15T14:11:49.691Z,95097.03
2018-05-15T14:14:17.202Z,95098.77
2018-05-15T14:16:44.708Z,95114.83
2018-05-15T14:19:12.250Z,95125.50
2018-05-15T14:21:39.768Z,95127.98
2018-05-15T14:24:07.320Z,95144.50
2018-05-15T14:26:34.819Z,95166.00
2018-05-15T14:29:02.644Z,95155.92
2018-05-15T14:31:30.253Z,95141.92
2018-05-15T14:33:57.712Z,95147.84
2018-05-15T14:36:25.257Z,95158.89
2018-05-15T14:38:52.762Z,95118.38
2018-05-15T14:44:15.688Z,95163.98
2018-05-15T14:46:43.234Z,95154.27
2018-05-15T14:49:10.753Z,95145.25
2018-05-15T14:51:38.259Z,95144.30
2018-05-15T14:54:07.551Z,95137.63
2018-05-15T14:56:35.062Z,95151.31
2018-05-15T14:59:02.611Z,95164.98
2018-05-15T15:01:30.838Z,95143.70
2018-05-15T15:03:58.374Z,95151.91
2018-05-15T15:06:25.893Z,95171.66
2018-05-15T15:08:53.463Z,95172.64
2018-05-15T15:11:20.968Z,95167.97
2018-05-15T15:13:48.477Z,95171.09
2018-05-15T15:16:16.040Z,95164.82
2018-05-15T15:18:43.603Z,95177.71
2018-05-15T15:21:11.247Z,95174.61
2018-05-15T15:23:38.800Z,95154.47
2018-05-15T15:26:06.387Z,95151.34
2018-05-15T15:28:33.905Z,95149.09
2018-05-15T15:31:01.427Z,95153.97
2018-05-15T15:33:28.927Z,95139.72
2018-05-15T15:35:56.442Z,95129.52
2018-05-15T15:38:23.972Z,95130.30
2018-05-15T15:40:51.489Z,95129.91
2018-05-15T15:43:19.005Z,95132.44
2018-05-15T15:45:46.516Z,95126.38
2018-05-15T15:48:14.039Z,95132.13
2018-05-15T15:50:41.597Z,95123.13
2018-05-15T15:53:09.104Z,95104.02
2018-05-15T15:55:36.636Z,95084.50
2018-05-15T15:58:04.201Z,95073.00
2018-05-15T16:00:31.754Z,95072.84
2018-05-15T16:02:59.254Z,95064.66
2018-05-15T16:05:27.511Z,95063.36
2018-05-15T16:07:55.119Z,95061.81
2018-05-15T16:10:22.729Z,95057.73
2018-05-15T16:12:50.405Z,95064.59
2018-05-15T16:15:17.930Z,95049.54
2018-05-15T16:17:45.447Z,95049.14
2018-05-15T16:20:13.008Z,95026.88
2018-05-15T16:22:40.568Z,95013.57
2018-05-15T16:25:08.101Z,95027.25
2018-05-15T16:27:35.731Z,95020.42
2018-05-15T16:30:04.501Z,95020.61
2018-05-15T16:32:32.012Z,95032.36
2018-05-15T16:34:59.536Z,95032.75
2018-05-15T16:37:27.083Z,95047.41
2018-05-15T16:39:54.602Z,95048.78
2018-05-15T16:42:22.119Z,95045.64
2018-05-15T16:44:49.627Z,95044.08
2018-05-15T16:47:17.140Z,95055.56
2018-05-15T16:49:44.693Z,95039.75
2018-05-15T16:52:12.199Z,95047.00
2018-05-15T16:54:39.747Z,95038.01
2018-05-15T16:57:07.306Z,95050.70
2018-05-15T16:59:34.840Z,95054.98
2018-05-15T17:02:02.361Z,95061.80
2018-05-15T17:04:29.863Z,95079.37
2018-05-15T17:06:57.385Z,95077.25
2018-05-15T17:09:25.765Z,95082.52
2018-05-15T17:11:53.272Z,95078.82
2018-05-15T17:14:20.781Z,95081.18
2018-05-15T17:16:48.332Z,95093.08
2018-05-15T17:19:15.903Z,95077.22
2018-05-15T17:21:43.431Z,95085.45
2018-05-15T17:24:10.945Z,95093.06
2018-05-15T17:26:38.472Z,95086.63
2018-05-15T17:29:05.984Z,95088.00
2018-05-15T17:31:33.604Z,95086.82
2018-05-15T17:34:01.022Z,95079.20
2018-05-15T17:36:28.529Z,95086.45
2018-05-15T17:38:56.032Z,95079.97
2018-05-15T17:41:23.567Z,95086.62
2018-05-15T17:43:51.076Z,95084.49
2018-05-15T17:46:18.596Z,95092.87
2018-05-15T17:48:46.133Z,95091.27
2018-05-15T17:51:13.626Z,95085.99
2018-05-15T17:53:41.131Z,95087.40
2018-05-15T17:56:08.641Z,95088.20
2018-05-15T17:58:36.212Z,95066.30
2018-05-15T18:01:03.719Z,95093.27
2018-05-15T18:03:31.251Z,95104.21
2018-05-15T18:05:58.780Z,95103.84
2018-05-15T18:08:26.352Z,95089.56
2018-05-15T18:10:53.834Z,95081.76
2018-05-15T18:13:21.408Z,95073.95
2018-05-15T18:15:48.921Z,95065.56
2018-05-15T18:18:16.436Z,95056.56
2018-05-15T18:20:43.949Z,95048.36
2018-05-15T18:23:11.472Z,95041.33
2018-05-15T18:25:38.976Z,95042.91
2018-05-15T18:28:06.470Z,95041.14
2018-05-15T18:30:33.976Z,95030.78
2018-05-15T18:33:01.547Z,95044.45
2018-05-15T18:35:29.036Z,95060.09
2018-05-15T18:37:56.546Z,95065.36
2018-05-15T18:40:24.048Z,95065.95
2018-05-15T18:42:51.588Z,95058.72
2018-05-15T18:45:19.184Z,95067.51
2018-05-15T18:47:46.689Z,95046.00
2018-05-15T18:50:14.210Z,95040.73
2018-05-15T18:52:41.728Z,95037.22
2018-05-15T18:55:09.311Z,95029.22
2018-05-15T18:57:36.861Z,95032.31
2018-05-15T19:00:05.183Z,95040.17
2018-05-15T19:02:32.701Z,95059.10
2018-05-15T19:05:00.207Z,95069.42
2018-05-15T19:07:27.706Z,95069.84
2018-05-15T19:09:55.215Z,95079.75
2018-05-15T19:12:22.730Z,95105.91
2018-05-15T19:14:50.317Z,95126.02
2018-05-15T19:17:17.832Z,95115.48
2018-05-15T19:19:50.297Z,95131.13
2018-05-15T19:22:21.748Z,95139.91
2018-05-15T19:24:49.312Z,95134.16
2018-05-15T19:27:16.904Z,95074.27
2018-05-15T19:29:44.404Z,95079.73
2018-05-15T19:32:17.694Z,95102.84
2018-05-15T19:34:50.636Z,95065.77
2018-05-15T19:37:18.959Z,95075.44
2018-05-15T19:39:46.553Z,95082.65
2018-05-15T19:42:14.054Z,95078.41
2018-05-15T19:44:41.595Z,95073.18
2018-05-15T19:47:09.109Z,95061.31
2018-05-15T19:49:36.625Z,95047.50
2018-05-15T19:52:04.161Z,95034.23
2018-05-15T19:54:31.668Z,95015.48
2018-05-15T19:56:59.189Z,95015.67
2018-05-15T19:59:27.805Z,95020.77
2018-05-15T20:01:55.466Z,95029.95
2018-05-15T20:04:22.967Z,95035.98
2018-05-15T20:06:50.763Z,95039.81
2018-05-15T20:09:18.487Z,95065.92
2018-05-15T20:11:46.023Z,95068.93
2018-05-15T20:14:13.550Z,95086.80
2018-05-15T20:16:41.336Z,95092.84
2018-05-15T20:19:09.354Z,95085.78
2018-05-15T20:21:36.872Z,95084.59
2018-05-15T20:24:04.396Z,95075.05
2018-05-15T20:26:31.894Z,95081.64
2018-05-15T20:28:59.458Z,95068.03
2018-05-15T20:31:26.931Z,95072.73
2018-05-15T20:33:54.433Z,95081.06
2018-05-15T20:36:21.930Z,95069.95
2018-05-15T20:38:49.443Z,95069.77
2018-05-15T20:41:17.007Z,95077.37
2018-05-15T20:43:44.743Z,95078.11
2018-05-15T20:46:12.248Z,95075.41
2018-05-15T20:48:40.869Z,95081.77
2018-05-15T20:51:08.419Z,95080.17
2018-05-15T20:53:35.919Z,95044.93
2018-05-15T20:56:03.424Z,95083.33
2018-05-15T20:58:31.022Z,95070.36
2018-05-15T21:00:58.483Z,95085.43
2018-05-15T21:03:26.103Z,95112.38
2018-05-15T21:05:53.662Z,95075.22
2018-05-15T21:08:21.230Z,95092.56
2018-05-15T21:10:48.731Z,95073.00
2018-05-15T21:13:16.555Z,95055.94
2018-05-15T21:15:44.981Z,95042.92
2018-05-15T21:18:12.614Z,95042.60
2018-05-15T21:20:40.127Z,95037.56
2018-05-15T21:23:07.683Z,95064.05
2018-05-15T21:25:35.292Z,95062.70
2018-05-15T21:28:02.800Z,95060.75
2018-05-15T21:30:30.330Z,95088.55
2018-05-15T21:32:57.836Z,95102.86
2018-05-15T21:35:25.376Z,95072.38
2018-05-15T21:37:52.882Z,95057.41
2018-05-15T21:40:20.638Z,95078.02
2018-05-15T21:42:48.153Z,95093.37
2018-05-15T21:45:15.673Z,95046.04
2018-05-15T21:47:43.473Z,95031.20
2018-05-15T21:50:11.340Z,95029.70
2018-05-15T21:52:39.017Z,95049.13
2018-05-15T21:55:06.471Z,95062.95
2018-05-15T21:57:33.980Z,95043.20
2018-05-15T22:00:01.512Z,95009.98
2018-05-15T22:02:29.063Z,95009.37
2018-05-15T22:04:56.583Z,95009.47
2018-05-15T22:07:24.096Z,95046.58
2018-05-15T22:09:52.028Z,95034.47
2018-05-15T22:12:31.568Z,95004.88
2018-05-15T22:15:10.652Z,95053.23
2018-05-15T22:17:50.036Z,95107.55
2018-05-15T22:20:29.493Z,95103.16
2018-05-15T22:22:56.475Z,95055.86
2018-05-15T22:25:23.983Z,95077.66
2018-05-15T22:27:51.505Z,95070.44
2018-05-15T22:30:19.032Z,95055.20
2018-05-15T22:32:46.616Z,95049.95
2018-05-15T22:35:14.123Z,95050.33
2018-05-15T22:37:41.684Z,95043.91
2018-05-15T22:40:09.221Z,95046.34
2018-05-15T22:42:36.728Z,95041.78
2018-05-15T22:45:04.565Z,95043.69
2018-05-15T22:47:32.076Z,95048.25
2018-05-15T22:49:59.801Z,95052.69
2018-05-15T22:52:27.324Z,95035.14
2018-05-15T22:54:54.852Z,95018.62
2018-05-15T22:57:22.593Z,95024.64
2018-05-15T22:59:50.109Z,95029.35
2018-05-15T23:02:17.609Z,94989.54
2018-05-15T23:04:45.112Z,94973.91
2018-05-15T23:07:13.320Z,94967.09
2018-05-15T23:09:40.822Z,94961.81
2018-05-15T23:12:08.320Z,94974.69
2018-05-15T23:14:35.839Z,94980.36
2018-05-15T23:17:03.576Z,94968.50
2018-05-15T23:19:31.375Z,94974.98
2018-05-15T23:21:59.281Z,94960.74
2018-05-15T23:24:27.060Z,94966.24
2018-05-15T23:26:54.573Z,94951.91
2018-05-15T23:29:22.166Z,94955.97
2018-05-15T23:31:49.600Z,94965.88
2018-05-15T23:34:17.335Z,94937.96
2018-05-15T23:36:44.863Z,94943.23
2018-05-15T23:39:12.415Z,94942.18
2018-05-15T23:41:40.661Z,94916.92
2018-05-15T23:44:08.178Z,94923.41
2018-05-15T23:46:35.723Z,94938.63
2018-05-15T23:49:03.559Z,94934.00
2018-05-15T23:51:31.335Z,94930.18
2018-05-15T23:53:59.127Z,94936.35
2018-05-15T23:56:27.263Z,94931.25
2018-05-15T23:58:54.772Z,94932.28
